Time;durP1;ratioP1;P1;durP2;ratioP2;P2;SDS_P1;SDS_P2;PMS_P1;PMS_P2;Temp;Humidity;BMP_temperature;BMP_pressure;BME280_temperature;BME280_humidity;BME280_pressure;Samples;Min_cycle;Max_cycle;Signal;HPM_P1;HPM_P2
2021/07/31 00:01:01;;;;;;;10.50;7.75;;;27.60;55.60;;;;;;6179131;28;80553;-67
2021/07/31 00:04:02;;;;;;;10.18;7.50;;;27.60;55.50;;;;;;6175805;28;80426;-68
2021/07/31 00:07:02;;;;;;;10.07;7.45;;;27.60;55.30;;;;;;6171612;28;82506;-67
2021/07/31 00:10:03;;;;;;;8.52;6.88;;;27.60;55.10;;;;;;6173277;28;80402;-68
2021/07/31 00:13:03;;;;;;;8.88;6.93;;;27.60;55.00;;;;;;6180543;28;80670;-68
2021/07/31 00:16:04;;;;;;;14.63;7.72;;;27.60;55.10;;;;;;6182502;28;81732;-67
2021/07/31 00:19:04;;;;;;;16.00;8.98;;;27.60;55.30;;;;;;6170863;28;81302;-68
2021/07/31 00:22:05;;;;;;;15.35;8.77;;;27.50;55.60;;;;;;6180960;28;83167;-68
2021/07/31 00:25:05;;;;;;;20.00;9.45;;;27.60;56.00;;;;;;6177785;28;80572;-68
2021/07/31 00:28:07;;;;;;;20.00;9.95;;;27.60;56.10;;;;;;6189053;28;80492;-68
2021/07/31 00:31:10;;;;;;;19.00;10.05;;;27.60;56.30;;;;;;6167648;28;80535;-67
2021/07/31 00:34:11;;;;;;;17.50;9.65;;;27.60;56.20;;;;;;6176748;28;83714;-66
2021/07/31 00:37:12;;;;;;;22.38;9.77;;;27.60;56.50;;;;;;6182157;28;83553;-67
2021/07/31 00:40:12;;;;;;;19.45;9.63;;;27.60;56.40;;;;;;6179438;28;80606;-67
2021/07/31 00:43:13;;;;;;;16.63;9.27;;;27.50;56.40;;;;;;6175568;28;81028;-67
2021/07/31 00:46:13;;;;;;;15.82;8.73;;;27.50;56.20;;;;;;6177964;28;80614;-67
2021/07/31 00:49:14;;;;;;;18.83;9.45;;;27.50;56.20;;;;;;6196422;28;82959;-68
2021/07/31 00:52:15;;;;;;;16.70;9.65;;;27.50;56.30;;;;;;6180947;28;81506;-69
2021/07/31 00:55:15;;;;;;;13.88;9.02;;;27.50;56.10;;;;;;6198950;28;82717;-68
2021/07/31 00:58:18;;;;;;;15.07;8.45;;;27.50;56.10;;;;;;6179693;28;83276;-68
2021/07/31 01:01:21;;;;;;;13.27;8.95;;;27.40;56.10;;;;;;6178640;28;83346;-68
2021/07/31 01:04:21;;;;;;;14.57;9.13;;;27.40;56.00;;;;;;6181478;28;80815;-69
2021/07/31 01:07:22;;;;;;;14.70;8.55;;;27.40;55.90;;;;;;6181591;28;81375;-68
2021/07/31 01:10:23;;;;;;;13.20;8.48;;;27.40;56.00;;;;;;6175048;28;81876;-69
2021/07/31 01:13:24;;;;;;;14.23;9.20;;;27.40;56.00;;;;;;6178162;28;80507;-68
2021/07/31 01:16:25;;;;;;;16.52;8.95;;;27.50;55.70;;;;;;6167772;28;82010;-70
2021/07/31 01:19:26;;;;;;;16.90;9.05;;;27.40;55.80;;;;;;6180289;28;80515;-70
2021/07/31 01:22:28;;;;;;;12.98;8.48;;;27.40;55.60;;;;;;6193465;28;82613;-69
2021/07/31 01:25:34;;;;;;;13.32;8.02;;;27.40;56.00;;;;;;6186602;28;83174;-67
2021/07/31 01:28:35;;;;;;;12.07;7.63;;;27.40;55.90;;;;;;6180385;28;81423;-68
2021/07/31 01:31:37;;;;;;;12.15;7.75;;;27.40;56.10;;;;;;6186634;28;82869;-68
2021/07/31 01:34:38;;;;;;;15.05;8.82;;;27.40;56.00;;;;;;6178382;28;81590;-68
2021/07/31 01:37:39;;;;;;;12.80;8.77;;;27.40;55.90;;;;;;6177836;28;83483;-68
2021/07/31 01:40:39;;;;;;;14.48;9.15;;;27.40;55.80;;;;;;6179474;28;81377;-68
2021/07/31 01:43:40;;;;;;;14.25;8.43;;;27.40;55.70;;;;;;6180960;28;81414;-68
2021/07/31 01:46:41;;;;;;;16.70;9.48;;;27.40;55.90;;;;;;6175715;28;83146;-68
2021/07/31 01:49:41;;;;;;;14.00;9.48;;;27.40;56.00;;;;;;6167669;28;82030;-67
2021/07/31 01:52:43;;;;;;;14.00;8.95;;;27.40;55.80;;;;;;6172596;28;81057;-67
2021/07/31 01:55:44;;;;;;;14.93;9.95;;;27.40;56.00;;;;;;6173791;28;82748;-67
2021/07/31 01:58:47;;;;;;;17.77;9.65;;;27.30;56.00;;;;;;6166025;28;81213;-67
2021/07/31 02:01:48;;;;;;;19.55;9.45;;;27.30;56.00;;;;;;6195796;28;82548;-67
2021/07/31 02:04:49;;;;;;;17.70;9.15;;;27.20;56.00;;;;;;6186609;28;83206;-68
2021/07/31 02:08:03;;;;;;;18.00;9.27;;;27.30;56.30;;;;;;6170092;28;81859;-68
2021/07/31 02:11:15;;;;;;;22.02;8.70;;;27.30;56.40;;;;;;6185564;28;81594;-68
2021/07/31 02:14:17;;;;;;;24.35;9.55;;;27.30;56.20;;;;;;6181279;28;83565;-69
2021/07/31 02:17:24;;;;;;;19.77;10.23;;;27.30;56.00;;;;;;6172071;28;83185;-67
2021/07/31 02:20:24;;;;;;;14.70;10.43;;;27.30;55.90;;;;;;6178638;28;83374;-68
2021/07/31 02:23:45;;;;;;;18.25;11.18;;;27.30;55.90;;;;;;6163164;28;87483;-67
2021/07/31 02:27:05;;;;;;;17.48;10.63;;;27.30;56.10;;;;;;6167163;28;83304;-68
2021/07/31 02:30:19;;;;;;;14.05;9.80;;;27.30;55.90;;;;;;6163828;28;85246;-68
2021/07/31 02:33:20;;;;;;;16.08;10.38;;;27.30;56.10;;;;;;6165247;28;82939;-68
2021/07/31 02:36:22;;;;;;;14.80;9.65;;;27.30;56.00;;;;;;6169989;28;83140;-68
2021/07/31 02:39:37;;;;;;;15.63;9.95;;;27.30;56.00;;;;;;6195118;28;85422;-69
2021/07/31 02:42:38;;;;;;;14.43;9.50;;;27.30;56.20;;;;;;6174802;28;80480;-67
2021/07/31 02:45:39;;;;;;;14.55;9.10;;;27.30;56.10;;;;;;6178616;28;83630;-68
2021/07/31 02:48:41;;;;;;;15.20;9.63;;;27.30;56.10;;;;;;6173905;28;83252;-68
2021/07/31 02:51:42;;;;;;;12.18;9.63;;;27.30;56.50;;;;;;6166832;28;83119;-68
2021/07/31 02:55:03;;;;;;;14.00;8.77;;;27.30;56.10;;;;;;6178759;28;80380;-68
2021/07/31 02:58:06;;;;;;;12.68;9.48;;;27.30;56.20;;;;;;6175720;28;80769;-68
2021/07/31 03:01:10;;;;;;;22.88;10.32;;;27.30;56.40;;;;;;6176700;28;82370;-68
2021/07/31 03:04:11;;;;;;;17.00;11.30;;;27.30;56.40;;;;;;6172966;28;83115;-68
2021/07/31 03:07:14;;;;;;;20.40;10.25;;;27.30;56.40;;;;;;6172572;28;84079;-68
2021/07/31 03:10:16;;;;;;;16.75;9.55;;;27.30;56.40;;;;;;6178077;28;85140;-69
2021/07/31 03:13:17;;;;;;;15.77;10.20;;;27.20;56.20;;;;;;6184078;28;83466;-69
2021/07/31 03:16:19;;;;;;;16.90;10.52;;;27.20;56.50;;;;;;6176913;28;82945;-69
2021/07/31 03:19:23;;;;;;;16.55;10.43;;;27.30;56.40;;;;;;6168757;28;85957;-67
2021/07/31 03:22:31;;;;;;;17.38;10.93;;;27.20;56.70;;;;;;6175021;28;82955;-68
2021/07/31 03:25:36;;;;;;;17.80;10.13;;;27.30;56.60;;;;;;6178776;28;86164;-67
2021/07/31 03:28:38;;;;;;;17.98;10.35;;;27.30;56.70;;;;;;6176864;28;85978;-67
2021/07/31 03:31:38;;;;;;;17.55;10.70;;;27.30;57.40;;;;;;6177831;28;84128;-69
2021/07/31 03:34:39;;;;;;;22.33;11.48;;;27.30;57.10;;;;;;6171807;28;83128;-69
2021/07/31 03:37:41;;;;;;;16.27;10.55;;;27.30;57.10;;;;;;6194106;28;85422;-68
2021/07/31 03:40:41;;;;;;;16.58;10.68;;;27.20;56.90;;;;;;6167710;28;83324;-69
2021/07/31 03:43:43;;;;;;;16.63;10.00;;;27.30;56.90;;;;;;6194760;28;85145;-67
2021/07/31 03:46:44;;;;;;;16.67;10.23;;;27.30;56.90;;;;;;6177976;28;83373;-68
2021/07/31 03:49:46;;;;;;;28.75;10.63;;;27.30;56.80;;;;;;6178604;28;83340;-68
2021/07/31 03:52:46;;;;;;;14.90;10.43;;;27.20;57.00;;;;;;6164479;28;84012;-68
2021/07/31 03:55:48;;;;;;;13.43;9.73;;;27.30;57.30;;;;;;6175355;28;83880;-67
2021/07/31 03:58:49;;;;;;;15.77;10.52;;;27.30;57.40;;;;;;6173082;28;83959;-67
2021/07/31 04:01:51;;;;;;;19.88;10.50;;;27.30;57.70;;;;;;6171038;28;90146;-67
2021/07/31 04:04:52;;;;;;;17.48;10.80;;;27.30;58.00;;;;;;6168705;28;83103;-67
2021/07/31 04:07:53;;;;;;;19.67;12.10;;;27.30;58.00;;;;;;6161480;28;86361;-68
2021/07/31 04:11:31;;;;;;;25.05;11.88;;;27.30;58.00;;;;;;6164686;28;89791;-67
2021/07/31 04:14:50;;;;;;;19.50;12.68;;;27.30;58.20;;;;;;6172164;28;83409;-68
2021/07/31 04:17:52;;;;;;;21.95;13.25;;;27.30;58.30;;;;;;6164776;28;85294;-68
2021/07/31 04:20:53;;;;;;;20.77;11.63;;;27.30;58.10;;;;;;6162792;28;86047;-70
2021/07/31 04:23:53;;;;;;;21.50;11.57;;;27.30;57.70;;;;;;6170367;28;85430;-70
2021/07/31 04:26:54;;;;;;;26.25;12.85;;;27.30;58.00;;;;;;6176191;28;83272;-68
2021/07/31 04:29:54;;;;;;;25.50;12.27;;;27.30;58.00;;;;;;6179096;28;83350;-71
2021/07/31 04:32:55;;;;;;;19.15;12.35;;;27.30;58.00;;;;;;6177376;28;83114;-68
2021/07/31 04:35:55;;;;;;;28.08;12.30;;;27.40;58.00;;;;;;6171900;28;83460;-69
2021/07/31 04:38:56;;;;;;;19.27;11.95;;;27.40;58.10;;;;;;6173925;28;83360;-68
2021/07/31 04:41:57;;;;;;;24.55;12.98;;;27.40;57.90;;;;;;6169909;28;84058;-68
2021/07/31 04:44:57;;;;;;;21.73;11.63;;;27.40;58.10;;;;;;6176536;28;84089;-69
2021/07/31 04:47:58;;;;;;;22.90;12.82;;;27.40;58.80;;;;;;6172440;28;83000;-68
2021/07/31 04:50:58;;;;;;;27.45;12.32;;;27.40;58.90;;;;;;6179066;28;84253;-67
2021/07/31 04:53:59;;;;;;;19.38;11.80;;;27.40;58.70;;;;;;6175898;28;83291;-69
2021/07/31 04:56:59;;;;;;;21.38;12.07;;;27.40;59.00;;;;;;6171865;28;85358;-68
2021/07/31 05:00:00;;;;;;;18.98;11.98;;;27.40;59.10;;;;;;6173882;28;83312;-68
2021/07/31 05:03:00;;;;;;;21.60;12.25;;;27.40;58.60;;;;;;6178480;28;83489;-67
2021/07/31 05:06:01;;;;;;;128.68;39.83;;;27.50;58.70;;;;;;6165672;28;83563;-67
2021/07/31 05:09:01;;;;;;;374.05;96.78;;;27.50;58.50;;;;;;6169137;28;84245;-68
2021/07/31 05:12:02;;;;;;;540.10;151.38;;;27.50;58.90;;;;;;6168840;28;83984;-68
2021/07/31 05:15:02;;;;;;;575.33;167.63;;;27.50;59.20;;;;;;6174438;28;85737;-69
2021/07/31 05:18:03;;;;;;;574.17;166.07;;;27.50;59.40;;;;;;6175541;28;85608;-68
2021/07/31 05:21:03;;;;;;;441.70;126.85;;;27.50;59.80;;;;;;6172774;28;85955;-68
2021/07/31 05:24:04;;;;;;;446.02;126.72;;;27.60;59.60;;;;;;6174427;28;86363;-66
2021/07/31 05:27:04;;;;;;;434.83;122.82;;;27.60;59.50;;;;;;6166916;28;86890;-67
2021/07/31 05:30:05;;;;;;;397.63;114.38;;;27.60;59.50;;;;;;6170920;28;85921;-67
2021/07/31 05:33:05;;;;;;;370.10;107.85;;;27.60;59.70;;;;;;6168390;28;85813;-67
2021/07/31 05:36:06;;;;;;;334.27;98.32;;;27.60;59.50;;;;;;6172700;28;85506;-67
2021/07/31 05:39:06;;;;;;;309.45;89.75;;;27.50;59.50;;;;;;6174075;28;85508;-66
2021/07/31 05:42:07;;;;;;;244.43;76.00;;;27.60;59.40;;;;;;6171669;28;83464;-66
2021/07/31 05:45:07;;;;;;;206.48;64.22;;;27.60;59.20;;;;;;6174167;28;83081;-65
2021/07/31 05:48:08;;;;;;;188.40;57.70;;;27.60;59.10;;;;;;6173139;28;84119;-65
2021/07/31 05:51:08;;;;;;;196.82;54.60;;;27.60;59.00;;;;;;6175516;28;85472;-66
2021/07/31 05:54:09;;;;;;;130.32;46.22;;;27.60;58.90;;;;;;6175747;28;83292;-65
2021/07/31 05:57:10;;;;;;;115.88;39.47;;;27.70;58.80;;;;;;6177271;28;82925;-67
2021/07/31 06:00:10;;;;;;;122.03;37.08;;;27.70;58.30;;;;;;6172084;28;83228;-66
2021/07/31 06:03:13;;;;;;;108.97;36.97;;;27.70;58.30;;;;;;6173727;28;82822;-67
2021/07/31 06:06:14;;;;;;;97.00;32.20;;;27.70;58.30;;;;;;6169035;28;84431;-68
2021/07/31 06:09:14;;;;;;;99.38;29.30;;;27.70;58.20;;;;;;6167982;28;83399;-67
2021/07/31 06:12:15;;;;;;;88.85;28.45;;;27.60;58.50;;;;;;6166727;28;83431;-67
2021/07/31 06:15:15;;;;;;;91.18;27.92;;;27.70;58.70;;;;;;6164288;28;83647;-68
2021/07/31 06:18:16;;;;;;;78.93;27.05;;;27.70;58.60;;;;;;6168044;28;83091;-67
2021/07/31 06:21:16;;;;;;;76.00;26.73;;;27.60;58.60;;;;;;6162334;28;84537;-66
2021/07/31 06:24:17;;;;;;;56.92;22.60;;;27.70;58.50;;;;;;6161320;28;83434;-67
2021/07/31 06:27:18;;;;;;;48.65;20.00;;;27.60;58.30;;;;;;6163426;28;83090;-64
2021/07/31 06:30:18;;;;;;;46.58;17.83;;;27.70;58.10;;;;;;6177845;28;84129;-64
2021/07/31 06:33:19;;;;;;;39.20;16.48;;;27.60;58.00;;;;;;6179012;28;83487;-63
2021/07/31 06:36:19;;;;;;;36.50;15.45;;;27.60;58.00;;;;;;6175894;28;83414;-64
2021/07/31 06:39:20;;;;;;;25.50;13.13;;;27.60;57.90;;;;;;6176011;28;83064;-65
2021/07/31 06:42:20;;;;;;;33.03;14.43;;;27.60;57.90;;;;;;6175711;28;83033;-66
2021/07/31 06:45:21;;;;;;;28.30;12.35;;;27.60;57.20;;;;;;6178704;28;83420;-68
2021/07/31 06:48:21;;;;;;;19.98;10.57;;;27.60;57.20;;;;;;6180998;28;82836;-66
2021/07/31 06:51:22;;;;;;;17.52;11.00;;;27.60;56.90;;;;;;6172982;28;83059;-66
2021/07/31 06:54:22;;;;;;;23.08;9.75;;;27.60;57.00;;;;;;6172918;28;83797;-67
2021/07/31 06:57:23;;;;;;;20.45;9.85;;;27.60;57.10;;;;;;6174877;28;83540;-67
2021/07/31 07:00:23;;;;;;;16.20;10.05;;;27.50;56.90;;;;;;6194851;28;81721;-66
2021/07/31 07:03:24;;;;;;;14.20;9.75;;;27.50;56.90;;;;;;6179545;28;83160;-66
2021/07/31 07:06:24;;;;;;;15.70;8.68;;;27.50;56.70;;;;;;6174023;28;84132;-68
2021/07/31 07:09:25;;;;;;;12.20;8.82;;;27.50;56.60;;;;;;6182445;28;80480;-67
2021/07/31 07:12:26;;;;;;;10.88;7.90;;;27.40;56.70;;;;;;6170484;28;80658;-67
2021/07/31 07:15:27;;;;;;;10.40;7.85;;;27.40;56.70;;;;;;6179759;28;82989;-66
2021/07/31 07:18:28;;;;;;;18.00;8.48;;;27.30;57.10;;;;;;6178334;28;80808;-69
2021/07/31 07:21:28;;;;;;;15.45;7.68;;;27.20;58.00;;;;;;6172789;28;83199;-68
2021/07/31 07:24:29;;;;;;;11.05;7.93;;;27.20;58.00;;;;;;6179382;28;83065;-71
2021/07/31 07:27:30;;;;;;;8.60;7.55;;;27.20;58.20;;;;;;6168629;28;80747;-70
2021/07/31 07:30:30;;;;;;;12.15;7.47;;;27.20;58.40;;;;;;6177854;28;80326;-72
2021/07/31 07:33:31;;;;;;;10.40;7.53;;;27.20;58.40;;;;;;6180716;28;80470;-74
2021/07/31 07:36:32;;;;;;;10.95;7.57;;;27.20;58.80;;;;;;6183085;28;81147;-69
2021/07/31 07:39:32;;;;;;;11.23;7.30;;;27.20;58.90;;;;;;6183414;28;80299;-73
2021/07/31 07:42:33;;;;;;;14.13;8.15;;;27.20;59.00;;;;;;6183766;28;80194;-73
2021/07/31 07:45:33;;;;;;;9.65;7.15;;;27.20;58.80;;;;;;6169633;28;80348;-73
2021/07/31 07:48:34;;;;;;;10.20;7.65;;;27.20;58.90;;;;;;6174706;28;80504;-70
2021/07/31 07:51:34;;;;;;;10.80;8.13;;;27.20;58.90;;;;;;6184793;28;81951;-70
2021/07/31 07:54:35;;;;;;;11.55;8.13;;;27.20;59.20;;;;;;6178459;28;80634;-68
2021/07/31 07:57:35;;;;;;;13.13;7.90;;;27.20;59.10;;;;;;6181136;28;80859;-75
2021/07/31 08:00:36;;;;;;;10.77;7.95;;;27.20;59.20;;;;;;6172567;28;81006;-74
2021/07/31 08:03:36;;;;;;;11.00;8.10;;;27.20;59.30;;;;;;6182731;28;81657;-71
2021/07/31 08:06:38;;;;;;;10.23;6.97;;;27.20;59.20;;;;;;6178944;28;81637;-73
2021/07/31 08:09:38;;;;;;;12.43;8.07;;;27.20;59.40;;;;;;6169572;28;80450;-71
2021/07/31 08:12:39;;;;;;;10.48;7.22;;;27.20;59.60;;;;;;6180278;28;80805;-73
2021/07/31 08:15:39;;;;;;;12.38;8.35;;;27.20;59.80;;;;;;6177244;28;80660;-71
2021/07/31 08:18:40;;;;;;;13.23;8.40;;;27.20;59.70;;;;;;6180547;28;81431;-71
2021/07/31 08:21:40;;;;;;;12.40;7.47;;;27.10;59.40;;;;;;6179961;28;80788;-69
2021/07/31 08:24:41;;;;;;;9.55;6.82;;;27.10;59.30;;;;;;6177304;28;80864;-71
2021/07/31 08:27:42;;;;;;;8.90;6.78;;;27.10;59.40;;;;;;6182874;28;80518;-69
2021/07/31 08:30:42;;;;;;;9.88;7.35;;;27.20;59.40;;;;;;6181186;28;81649;-72
2021/07/31 08:33:43;;;;;;;9.02;7.00;;;27.10;59.40;;;;;;6178415;28;80111;-71
2021/07/31 08:36:43;;;;;;;8.63;6.60;;;26.90;59.50;;;;;;6179624;28;80451;-71
2021/07/31 08:39:44;;;;;;;12.82;6.32;;;26.90;59.50;;;;;;6172699;28;80616;-71
2021/07/31 08:42:44;;;;;;;9.43;6.88;;;26.90;59.80;;;;;;6175686;28;81772;-67
2021/07/31 08:45:45;;;;;;;13.73;8.18;;;26.70;60.00;;;;;;6180384;28;81075;-68
2021/07/31 08:48:45;;;;;;;19.70;7.20;;;26.60;60.50;;;;;;6181010;28;80986;-69
2021/07/31 08:51:46;;;;;;;9.85;6.72;;;26.60;60.70;;;;;;6181064;28;80843;-70
2021/07/31 08:54:46;;;;;;;9.00;6.55;;;26.40;61.20;;;;;;6173891;28;81581;-69
2021/07/31 08:57:47;;;;;;;10.15;6.88;;;26.40;61.50;;;;;;6172006;28;80996;-69
2021/07/31 09:00:47;;;;;;;8.77;5.95;;;26.40;61.60;;;;;;6180707;28;81420;-69
2021/07/31 09:03:48;;;;;;;9.60;6.68;;;26.50;61.60;;;;;;6178204;28;81591;-69
2021/07/31 09:06:48;;;;;;;13.43;6.82;;;26.60;61.70;;;;;;6179206;28;83363;-68
2021/07/31 09:09:49;;;;;;;11.05;6.22;;;26.60;61.60;;;;;;6180549;28;81683;-70
2021/07/31 09:12:49;;;;;;;8.13;6.55;;;26.70;61.60;;;;;;6181530;28;80901;-71
2021/07/31 09:15:52;;;;;;;10.73;7.10;;;26.70;61.40;;;;;;6180293;28;80555;-70
2021/07/31 09:18:53;;;;;;;11.00;6.95;;;26.80;61.30;;;;;;6173731;28;80335;-67
2021/07/31 09:21:53;;;;;;;10.32;7.10;;;26.80;61.10;;;;;;6181834;28;80497;-69
2021/07/31 09:24:54;;;;;;;8.32;6.88;;;26.90;61.20;;;;;;6177727;28;82613;-69
2021/07/31 09:27:54;;;;;;;8.15;6.90;;;26.90;61.30;;;;;;6181460;28;81379;-70
2021/07/31 09:30:54;;;;;;;10.15;6.97;;;27.00;61.10;;;;;;6179480;28;80536;-69
2021/07/31 09:33:55;;;;;;;8.10;6.75;;;27.00;60.90;;;;;;6178086;28;80562;-70
2021/07/31 09:36:55;;;;;;;10.48;6.65;;;27.10;61.20;;;;;;6173964;28;82633;-71
2021/07/31 09:39:56;;;;;;;11.23;7.28;;;27.10;61.20;;;;;;6177077;28;80713;-68
2021/07/31 09:42:57;;;;;;;11.57;7.43;;;27.10;63.90;;;;;;6185138;28;82745;-69
2021/07/31 09:45:57;;;;;;;20.55;14.70;;;27.20;65.20;;;;;;6181483;28;80429;-70
2021/07/31 09:48:58;;;;;;;19.17;13.13;;;27.20;62.60;;;;;;6161367;28;85160;-69
2021/07/31 09:51:59;;;;;;;22.30;12.48;;;27.30;63.40;;;;;;6164901;28;83400;-70
2021/07/31 09:55:00;;;;;;;15.85;10.88;;;27.30;63.70;;;;;;6160719;28;82875;-71
2021/07/31 09:58:00;;;;;;;15.95;9.65;;;27.30;63.70;;;;;;6166359;28;85238;-71
2021/07/31 10:01:02;;;;;;;13.55;9.45;;;27.30;63.90;;;;;;6171072;28;83886;-69
2021/07/31 10:04:02;;;;;;;11.02;7.72;;;27.20;63.60;;;;;;6169480;28;81508;-70
2021/07/31 10:07:03;;;;;;;10.27;7.78;;;27.20;63.60;;;;;;6173273;28;83577;-70
2021/07/31 10:10:03;;;;;;;9.23;7.05;;;27.20;63.40;;;;;;6179916;28;80695;-71
2021/07/31 10:13:04;;;;;;;15.30;7.75;;;27.10;63.20;;;;;;6178677;28;81477;-70
2021/07/31 10:16:04;;;;;;;12.43;8.02;;;27.10;63.10;;;;;;6182750;28;81346;-70
2021/07/31 10:19:05;;;;;;;11.63;7.50;;;27.10;63.10;;;;;;6178037;28;80919;-71
2021/07/31 10:22:05;;;;;;;9.82;6.78;;;27.00;63.10;;;;;;6169500;28;80416;-69
2021/07/31 10:25:06;;;;;;;9.52;6.38;;;27.00;62.70;;;;;;6171002;28;80457;-68
2021/07/31 10:28:07;;;;;;;7.45;6.25;;;27.00;62.60;;;;;;6175094;28;82241;-69
2021/07/31 10:31:07;;;;;;;8.93;6.78;;;27.00;62.60;;;;;;6184205;28;81317;-69
2021/07/31 10:34:08;;;;;;;7.88;6.22;;;27.00;62.50;;;;;;6181215;28;80916;-69
2021/07/31 10:37:08;;;;;;;9.63;5.90;;;27.00;62.50;;;;;;6197897;28;80578;-69
2021/07/31 10:40:09;;;;;;;9.40;6.18;;;27.00;62.10;;;;;;6169815;28;80422;-69
2021/07/31 10:43:11;;;;;;;9.23;6.38;;;27.00;61.90;;;;;;6185051;28;80568;-68
2021/07/31 10:46:11;;;;;;;7.78;6.00;;;27.00;61.60;;;;;;6171451;28;87577;-67
2021/07/31 10:49:12;;;;;;;8.95;6.05;;;27.00;61.60;;;;;;6176011;28;80936;-67
2021/07/31 10:52:12;;;;;;;7.20;5.95;;;27.00;61.40;;;;;;6181593;28;80652;-70
2021/07/31 10:55:13;;;;;;;7.68;5.95;;;27.00;61.30;;;;;;6184048;28;80428;-69
2021/07/31 10:58:13;;;;;;;7.65;6.07;;;27.00;61.50;;;;;;6182936;28;81088;-69
2021/07/31 11:01:14;;;;;;;6.18;5.10;;;27.10;61.70;;;;;;6177240;28;80625;-69
2021/07/31 11:04:14;;;;;;;8.35;5.85;;;27.10;61.70;;;;;;6182795;28;80691;-69
2021/07/31 11:07:15;;;;;;;8.98;5.80;;;27.10;61.20;;;;;;6182148;28;81684;-72
2021/07/31 11:10:15;;;;;;;6.75;5.22;;;27.10;61.10;;;;;;6172295;28;80804;-70
2021/07/31 11:13:16;;;;;;;6.60;5.18;;;27.20;60.90;;;;;;6182664;28;80823;-68
2021/07/31 11:16:18;;;;;;;9.00;5.75;;;27.20;61.00;;;;;;6171844;28;83318;-70
2021/07/31 11:19:18;;;;;;;10.75;5.70;;;27.20;60.80;;;;;;6173517;28;80627;-72
2021/07/31 11:22:18;;;;;;;7.03;5.25;;;27.20;60.60;;;;;;6178655;28;81669;-69
2021/07/31 11:25:19;;;;;;;8.30;5.35;;;27.20;60.60;;;;;;6173632;28;83225;-70
2021/07/31 11:28:19;;;;;;;8.18;5.35;;;27.30;60.90;;;;;;6178939;28;81325;-73
2021/07/31 11:31:20;;;;;;;8.20;5.75;;;27.20;60.80;;;;;;6178643;28;81711;-71
2021/07/31 11:34:20;;;;;;;8.27;5.47;;;27.20;60.80;;;;;;6173573;28;81028;-70
2021/07/31 11:37:23;;;;;;;8.38;5.13;;;27.20;60.80;;;;;;6170452;28;80501;-71
2021/07/31 11:40:23;;;;;;;6.90;4.97;;;27.20;61.20;;;;;;6180851;28;80285;-69
2021/07/31 11:43:24;;;;;;;9.63;5.85;;;27.20;60.80;;;;;;6182334;28;80333;-68
2021/07/31 11:46:24;;;;;;;8.82;5.45;;;27.20;60.80;;;;;;6178095;28;82342;-68
2021/07/31 11:49:25;;;;;;;7.20;5.47;;;27.20;61.10;;;;;;6184240;28;80449;-72
2021/07/31 11:52:25;;;;;;;8.25;5.18;;;27.30;61.20;;;;;;6180069;28;81165;-74
2021/07/31 11:55:26;;;;;;;9.15;5.38;;;27.20;60.60;;;;;;6184013;28;80948;-70
2021/07/31 11:58:26;;;;;;;7.57;5.63;;;27.20;60.10;;;;;;6181804;28;80400;-70
2021/07/31 12:01:27;;;;;;;5.07;4.57;;;27.20;59.80;;;;;;6171179;28;81271;-67
2021/07/31 12:04:27;;;;;;;5.85;4.80;;;27.20;59.20;;;;;;6172576;28;81086;-67
2021/07/31 12:07:28;;;;;;;5.43;4.88;;;27.20;58.40;;;;;;6171059;28;80360;-68
2021/07/31 12:10:29;;;;;;;8.68;6.18;;;27.20;58.60;;;;;;6184519;28;80735;-66
2021/07/31 12:13:29;;;;;;;6.97;5.25;;;27.30;58.80;;;;;;6172842;28;80405;-68
2021/07/31 12:16:30;;;;;;;5.45;4.55;;;27.30;58.60;;;;;;6181857;28;80345;-68
2021/07/31 12:19:30;;;;;;;5.20;4.20;;;27.30;57.70;;;;;;6176246;28;80509;-67
2021/07/31 12:22:31;;;;;;;4.22;3.83;;;27.30;57.20;;;;;;6180469;28;80313;-68
2021/07/31 12:25:31;;;;;;;7.57;4.43;;;27.30;56.70;;;;;;6180014;28;87797;-67
2021/07/31 12:28:32;;;;;;;6.05;4.05;;;27.30;56.50;;;;;;6177677;28;81092;-69
2021/07/31 12:31:32;;;;;;;5.40;4.13;;;27.30;57.00;;;;;;6170191;28;81416;-68
2021/07/31 12:34:33;;;;;;;4.50;3.65;;;27.40;57.30;;;;;;6173803;28;81052;-68
2021/07/31 12:37:33;;;;;;;7.18;4.25;;;27.40;56.60;;;;;;6171068;28;81434;-70
2021/07/31 12:40:34;;;;;;;4.22;3.63;;;27.30;56.70;;;;;;6176125;28;81495;-68
2021/07/31 12:43:34;;;;;;;8.18;3.90;;;27.20;56.40;;;;;;6175252;28;80698;-70
2021/07/31 12:46:35;;;;;;;6.07;3.40;;;27.30;56.50;;;;;;6180520;28;80477;-73
2021/07/31 12:49:42;;;;;;;4.82;3.75;;;27.40;56.70;;;;;;6197732;27;75195;-72
2021/07/31 12:52:43;;;;;;;6.80;3.90;;;27.40;56.90;;;;;;6195318;28;81287;-70
2021/07/31 12:55:43;;;;;;;4.32;3.92;;;27.40;57.00;;;;;;6204449;28;81543;-70
2021/07/31 12:58:44;;;;;;;4.30;3.90;;;27.50;57.30;;;;;;6209281;28;80469;-70
2021/07/31 13:01:44;;;;;;;4.55;3.88;;;27.40;56.60;;;;;;6198846;28;80746;-70
2021/07/31 13:04:45;;;;;;;3.90;3.10;;;27.40;56.60;;;;;;6198080;28;81736;-71
2021/07/31 13:07:45;;;;;;;4.43;3.80;;;27.40;56.70;;;;;;6200460;28;80697;-69
2021/07/31 13:10:46;;;;;;;8.15;4.00;;;27.50;56.90;;;;;;6197022;28;83910;-71
2021/07/31 13:16:51;;;;;;;3.67;3.13;;;27.50;55.50;;;;;;6087088;28;83089;-70
2021/07/31 13:19:51;;;;;;;4.93;3.65;;;27.50;55.60;;;;;;6106572;28;80473;-70
2021/07/31 13:22:52;;;;;;;4.75;3.60;;;27.60;55.60;;;;;;6113926;28;80708;-69
2021/07/31 13:25:52;;;;;;;4.43;3.88;;;27.60;55.90;;;;;;6121080;28;81498;-69
2021/07/31 13:28:53;;;;;;;5.25;3.88;;;27.60;55.90;;;;;;6115305;28;81362;-70
2021/07/31 13:31:53;;;;;;;4.00;3.58;;;27.70;56.10;;;;;;6109919;28;80427;-69
2021/07/31 13:34:54;;;;;;;4.43;3.92;;;27.60;56.20;;;;;;6119509;28;80727;-68
2021/07/31 13:37:54;;;;;;;4.65;4.00;;;27.60;56.30;;;;;;6106023;28;81700;-69
2021/07/31 13:40:55;;;;;;;4.10;3.35;;;27.60;55.50;;;;;;6119919;28;83290;-69
2021/07/31 13:43:55;;;;;;;4.60;3.65;;;27.60;55.30;;;;;;6107425;28;80473;-69
2021/07/31 13:46:56;;;;;;;4.65;3.67;;;27.70;55.00;;;;;;6106918;28;81496;-68
2021/07/31 13:49:57;;;;;;;4.78;3.72;;;27.70;55.00;;;;;;6105864;28;80362;-67
2021/07/31 13:52:57;;;;;;;3.45;3.15;;;27.60;55.20;;;;;;6120338;28;81492;-69
2021/07/31 13:55:58;;;;;;;3.90;3.33;;;27.60;55.60;;;;;;6112257;28;81271;-67
2021/07/31 13:58:59;;;;;;;4.13;3.65;;;27.70;56.10;;;;;;6101096;28;81239;-68
2021/07/31 14:01:59;;;;;;;4.35;3.72;;;27.70;56.00;;;;;;6090991;28;80979;-68
2021/07/31 14:05:00;;;;;;;4.32;3.72;;;27.70;55.90;;;;;;6090857;28;80621;-73
2021/07/31 14:08:00;;;;;;;3.92;3.33;;;27.70;55.90;;;;;;6099740;28;80575;-70
2021/07/31 14:11:01;;;;;;;3.50;3.20;;;27.70;56.00;;;;;;6091497;28;80694;-71
2021/07/31 14:14:01;;;;;;;3.65;3.08;;;27.80;54.80;;;;;;6089159;28;81696;-71
2021/07/31 14:17:02;;;;;;;4.57;3.05;;;27.70;54.70;;;;;;6093613;28;80381;-71
2021/07/31 14:20:02;;;;;;;3.33;3.03;;;27.80;54.50;;;;;;6102256;28;80129;-73
2021/07/31 14:23:03;;;;;;;7.38;4.53;;;27.80;54.80;;;;;;6091697;28;80963;-70
2021/07/31 14:26:03;;;;;;;4.22;3.83;;;27.80;54.70;;;;;;6089670;28;80325;-72
2021/07/31 14:29:04;;;;;;;4.07;3.58;;;27.80;53.90;;;;;;6090617;28;80636;-70
2021/07/31 14:32:05;;;;;;;5.97;3.60;;;27.80;54.20;;;;;;6087071;28;81108;-70
2021/07/31 14:35:05;;;;;;;4.65;3.80;;;27.80;54.10;;;;;;6091496;28;80633;-68
2021/07/31 14:38:06;;;;;;;4.00;3.47;;;27.80;54.00;;;;;;6090573;28;80674;-70
2021/07/31 14:41:06;;;;;;;4.60;3.85;;;27.70;54.30;;;;;;6086173;28;83035;-70
2021/07/31 14:44:07;;;;;;;4.13;3.72;;;27.80;54.30;;;;;;6091331;28;81039;-72
2021/07/31 14:47:12;;;;;;;4.47;3.65;;;27.70;54.50;;;;;;6091446;28;80395;-72
2021/07/31 14:50:12;;;;;;;4.75;3.75;;;27.70;54.20;;;;;;6089281;28;80428;-73
2021/07/31 14:53:13;;;;;;;5.93;4.03;;;27.80;54.60;;;;;;6091086;28;80912;-71
2021/07/31 14:56:13;;;;;;;5.43;3.88;;;27.80;55.30;;;;;;6090332;28;80614;-72
2021/07/31 14:59:14;;;;;;;4.90;4.15;;;27.80;54.90;;;;;;6091905;28;80569;-70
2021/07/31 15:02:14;;;;;;;5.05;3.60;;;27.80;54.90;;;;;;6088872;28;81145;-70
2021/07/31 15:05:15;;;;;;;6.35;3.92;;;27.80;55.00;;;;;;6089393;28;80107;-70
2021/07/31 15:08:15;;;;;;;4.60;3.67;;;27.80;55.20;;;;;;6091907;28;81103;-69
2021/07/31 15:11:16;;;;;;;4.60;3.70;;;27.80;55.00;;;;;;6088212;28;80543;-72
2021/07/31 15:14:16;;;;;;;4.38;3.70;;;27.80;54.80;;;;;;6091479;28;80960;-71
2021/07/31 15:17:19;;;;;;;5.10;4.18;;;27.80;54.50;;;;;;6090330;28;80564;-71
2021/07/31 15:20:19;;;;;;;4.65;3.75;;;27.80;54.70;;;;;;6090808;28;80473;-70
2021/07/31 15:23:20;;;;;;;6.40;4.45;;;27.80;54.70;;;;;;6091004;28;80446;-70
2021/07/31 15:26:20;;;;;;;4.68;3.75;;;27.80;55.00;;;;;;6089452;28;80337;-71
2021/07/31 15:29:21;;;;;;;4.93;3.78;;;27.80;55.20;;;;;;6092050;28;81967;-71
2021/07/31 15:32:21;;;;;;;4.75;3.92;;;27.80;55.40;;;;;;6087899;28;81364;-71
2021/07/31 15:35:22;;;;;;;4.93;4.03;;;27.70;55.30;;;;;;6092549;28;82990;-70